sensor_id;sensor_type;location;lat;lon;timestamp;temperature;humidity
33269;DHT22;19640;50.944;5.260;2022-09-16T00:00:07;14.70;99.90
33269;DHT22;19640;50.944;5.260;2022-09-16T00:02:33;14.60;99.90
33269;DHT22;19640;50.944;5.260;2022-09-16T00:04:59;14.60;99.90
33269;DHT22;19640;50.944;5.260;2022-09-16T00:07:24;14.60;99.90
33269;DHT22;19640;50.944;5.260;2022-09-16T00:09:50;14.60;99.90
33269;DHT22;19640;50.944;5.260;2022-09-16T00:12:15;14.70;99.90
33269;DHT22;19640;50.944;5.260;2022-09-16T00:14:41;14.50;99.90
33269;DHT22;19640;50.944;5.260;2022-09-16T00:17:06;14.50;99.90
33269;DHT22;19640;50.944;5.260;2022-09-16T00:19:32;14.50;99.90
33269;DHT22;19640;50.944;5.260;2022-09-16T00:21:57;14.30;99.90
33269;DHT22;19640;50.944;5.260;2022-09-16T00:24:23;14.40;99.90
33269;DHT22;19640;50.944;5.260;2022-09-16T00:26:48;14.50;99.90
33269;DHT22;19640;50.944;5.260;2022-09-16T00:29:14;14.30;99.90
33269;DHT22;19640;50.944;5.260;2022-09-16T00:31:39;14.40;99.90
33269;DHT22;19640;50.944;5.260;2022-09-16T00:34:05;14.40;99.90
33269;DHT22;19640;50.944;5.260;2022-09-16T00:36:30;14.50;99.90
33269;DHT22;19640;50.944;5.260;2022-09-16T00:38:56;14.30;99.90
33269;DHT22;19640;50.944;5.260;2022-09-16T00:41:30;14.30;99.90
33269;DHT22;19640;50.944;5.260;2022-09-16T00:44:02;14.40;99.90
33269;DHT22;19640;50.944;5.260;2022-09-16T00:46:44;14.30;99.90
33269;DHT22;19640;50.944;5.260;2022-09-16T00:49:16;14.40;99.90
33269;DHT22;19640;50.944;5.260;2022-09-16T00:51:43;14.30;99.90
33269;DHT22;19640;50.944;5.260;2022-09-16T00:54:09;14.40;99.90
33269;DHT22;19640;50.944;5.260;2022-09-16T00:56:36;14.30;99.90
33269;DHT22;19640;50.944;5.260;2022-09-16T00:59:13;14.30;99.90
33269;DHT22;19640;50.944;5.260;2022-09-16T01:01:39;14.20;99.90
33269;DHT22;19640;50.944;5.260;2022-09-16T01:04:11;14.20;99.90
33269;DHT22;19640;50.944;5.260;2022-09-16T01:06:38;14.20;99.90
33269;DHT22;19640;50.944;5.260;2022-09-16T01:09:04;14.10;99.90
33269;DHT22;19640;50.944;5.260;2022-09-16T01:11:30;14.10;99.90
33269;DHT22;19640;50.944;5.260;2022-09-16T01:13:56;14.00;99.90
33269;DHT22;19640;50.944;5.260;2022-09-16T01:16:42;14.00;99.90
33269;DHT22;19640;50.944;5.260;2022-09-16T01:37:07;13.70;99.90
33269;DHT22;19640;50.944;5.260;2022-09-16T01:47:21;13.50;99.90
33269;DHT22;19640;50.944;5.260;2022-09-16T01:49:56;13.20;99.90
33269;DHT22;19640;50.944;5.260;2022-09-16T01:54:58;13.10;99.90
33269;DHT22;19640;50.944;5.260;2022-09-16T01:57:37;13.20;99.90
33269;DHT22;19640;50.944;5.260;2022-09-16T02:00:06;13.10;99.90
33269;DHT22;19640;50.944;5.260;2022-09-16T02:02:34;13.20;99.90
33269;DHT22;19640;50.944;5.260;2022-09-16T02:05:03;13.10;99.90
33269;DHT22;19640;50.944;5.260;2022-09-16T02:07:30;13.00;99.90
33269;DHT22;19640;50.944;5.260;2022-09-16T02:09:57;13.10;99.90
33269;DHT22;19640;50.944;5.260;2022-09-16T02:12:29;13.10;99.90
33269;DHT22;19640;50.944;5.260;2022-09-16T02:14:58;13.10;99.90
33269;DHT22;19640;50.944;5.260;2022-09-16T02:17:25;13.20;99.90
33269;DHT22;19640;50.944;5.260;2022-09-16T02:19:56;13.20;99.90
33269;DHT22;19640;50.944;5.260;2022-09-16T02:22:28;13.20;99.90
33269;DHT22;19640;50.944;5.260;2022-09-16T02:24:56;13.00;99.90
33269;DHT22;19640;50.944;5.260;2022-09-16T02:27:23;13.10;99.90
33269;DHT22;19640;50.944;5.260;2022-09-16T02:32:42;13.10;99.90
33269;DHT22;19640;50.944;5.260;2022-09-16T02:35:10;13.00;99.90
33269;DHT22;19640;50.944;5.260;2022-09-16T02:37:41;12.90;99.90
33269;DHT22;19640;50.944;5.260;2022-09-16T02:40:14;12.90;99.90
33269;DHT22;19640;50.944;5.260;2022-09-16T02:42:41;12.90;99.90
33269;DHT22;19640;50.944;5.260;2022-09-16T02:45:06;13.00;99.90
33269;DHT22;19640;50.944;5.260;2022-09-16T02:55:14;13.00;99.90
33269;DHT22;19640;50.944;5.260;2022-09-16T02:57:44;13.00;99.90
33269;DHT22;19640;50.944;5.260;2022-09-16T03:00:10;13.00;99.90
33269;DHT22;19640;50.944;5.260;2022-09-16T03:02:36;12.90;99.90
33269;DHT22;19640;50.944;5.260;2022-09-16T03:05:01;12.90;99.90
33269;DHT22;19640;50.944;5.260;2022-09-16T03:07:29;12.90;99.90
33269;DHT22;19640;50.944;5.260;2022-09-16T03:09:54;12.90;99.90
33269;DHT22;19640;50.944;5.260;2022-09-16T03:27:24;12.60;99.90
33269;DHT22;19640;50.944;5.260;2022-09-16T03:30:04;12.70;99.90
33269;DHT22;19640;50.944;5.260;2022-09-16T03:32:35;12.70;99.90
33269;DHT22;19640;50.944;5.260;2022-09-16T03:35:03;12.70;99.90
33269;DHT22;19640;50.944;5.260;2022-09-16T03:37:33;12.80;99.90
33269;DHT22;19640;50.944;5.260;2022-09-16T03:40:02;12.90;99.90
33269;DHT22;19640;50.944;5.260;2022-09-16T03:42:28;12.90;99.90
33269;DHT22;19640;50.944;5.260;2022-09-16T03:44:54;13.00;99.90
33269;DHT22;19640;50.944;5.260;2022-09-16T03:47:19;13.10;99.90
33269;DHT22;19640;50.944;5.260;2022-09-16T03:49:45;13.30;99.90
33269;DHT22;19640;50.944;5.260;2022-09-16T03:52:10;13.30;99.90
33269;DHT22;19640;50.944;5.260;2022-09-16T03:54:36;13.30;99.90
33269;DHT22;19640;50.944;5.260;2022-09-16T03:57:02;13.30;99.90
33269;DHT22;19640;50.944;5.260;2022-09-16T03:59:28;13.40;99.90
33269;DHT22;19640;50.944;5.260;2022-09-16T04:01:54;13.40;99.90
33269;DHT22;19640;50.944;5.260;2022-09-16T04:04:19;13.50;99.90
33269;DHT22;19640;50.944;5.260;2022-09-16T04:06:45;13.30;99.90
33269;DHT22;19640;50.944;5.260;2022-09-16T04:09:10;13.30;99.90
33269;DHT22;19640;50.944;5.260;2022-09-16T04:11:37;13.30;99.90
33269;DHT22;19640;50.944;5.260;2022-09-16T04:14:03;13.40;99.90
33269;DHT22;19640;50.944;5.260;2022-09-16T04:16:28;13.50;99.90
33269;DHT22;19640;50.944;5.260;2022-09-16T04:18:55;13.60;99.90
33269;DHT22;19640;50.944;5.260;2022-09-16T04:21:20;13.50;99.90
33269;DHT22;19640;50.944;5.260;2022-09-16T04:23:46;13.50;99.90
33269;DHT22;19640;50.944;5.260;2022-09-16T04:26:12;13.50;99.90
33269;DHT22;19640;50.944;5.260;2022-09-16T04:28:38;13.60;99.90
33269;DHT22;19640;50.944;5.260;2022-09-16T04:31:04;13.60;99.90
33269;DHT22;19640;50.944;5.260;2022-09-16T04:33:31;13.50;99.90
33269;DHT22;19640;50.944;5.260;2022-09-16T04:38:28;13.40;99.90
33269;DHT22;19640;50.944;5.260;2022-09-16T04:40:58;13.40;99.90
33269;DHT22;19640;50.944;5.260;2022-09-16T04:43:24;13.40;99.90
33269;DHT22;19640;50.944;5.260;2022-09-16T04:45:50;13.30;99.90
33269;DHT22;19640;50.944;5.260;2022-09-16T04:48:15;13.10;99.90
33269;DHT22;19640;50.944;5.260;2022-09-16T04:50:42;13.20;99.90
33269;DHT22;19640;50.944;5.260;2022-09-16T04:53:08;13.30;99.90
33269;DHT22;19640;50.944;5.260;2022-09-16T04:55:33;13.50;99.90
33269;DHT22;19640;50.944;5.260;2022-09-16T04:57:59;13.60;99.90
33269;DHT22;19640;50.944;5.260;2022-09-16T05:00:25;13.50;99.90
33269;DHT22;19640;50.944;5.260;2022-09-16T05:02:51;13.60;99.90
33269;DHT22;19640;50.944;5.260;2022-09-16T05:05:19;13.70;99.90
33269;DHT22;19640;50.944;5.260;2022-09-16T05:07:44;13.70;99.90
33269;DHT22;19640;50.944;5.260;2022-09-16T05:10:10;13.70;99.90
33269;DHT22;19640;50.944;5.260;2022-09-16T05:12:36;13.70;99.90
33269;DHT22;19640;50.944;5.260;2022-09-16T05:15:02;13.60;99.90
33269;DHT22;19640;50.944;5.260;2022-09-16T05:17:28;13.60;99.90
33269;DHT22;19640;50.944;5.260;2022-09-16T05:19:54;13.60;99.90
33269;DHT22;19640;50.944;5.260;2022-09-16T05:22:19;13.60;99.90
33269;DHT22;19640;50.944;5.260;2022-09-16T05:24:45;13.70;99.90
33269;DHT22;19640;50.944;5.260;2022-09-16T05:27:10;13.70;99.90
33269;DHT22;19640;50.944;5.260;2022-09-16T05:29:36;13.70;99.90
33269;DHT22;19640;50.944;5.260;2022-09-16T05:32:01;13.70;99.90
33269;DHT22;19640;50.944;5.260;2022-09-16T05:34:27;13.60;99.90
33269;DHT22;19640;50.944;5.260;2022-09-16T05:36:53;13.70;99.90
33269;DHT22;19640;50.944;5.260;2022-09-16T05:39:19;13.80;99.90
33269;DHT22;19640;50.944;5.260;2022-09-16T05:41:45;13.90;99.90
33269;DHT22;19640;50.944;5.260;2022-09-16T05:44:11;13.70;99.90
33269;DHT22;19640;50.944;5.260;2022-09-16T05:46:37;13.90;99.90
33269;DHT22;19640;50.944;5.260;2022-09-16T05:49:05;13.80;99.90
33269;DHT22;19640;50.944;5.260;2022-09-16T05:51:30;13.90;99.90
33269;DHT22;19640;50.944;5.260;2022-09-16T05:53:57;13.70;99.90
33269;DHT22;19640;50.944;5.260;2022-09-16T05:56:23;13.70;99.90
33269;DHT22;19640;50.944;5.260;2022-09-16T05:58:54;13.70;99.90
33269;DHT22;19640;50.944;5.260;2022-09-16T06:01:21;13.80;99.90
33269;DHT22;19640;50.944;5.260;2022-09-16T06:03:47;13.90;99.90
33269;DHT22;19640;50.944;5.260;2022-09-16T06:06:17;13.90;99.90
33269;DHT22;19640;50.944;5.260;2022-09-16T06:08:43;14.00;99.90
33269;DHT22;19640;50.944;5.260;2022-09-16T06:11:09;14.00;99.90
33269;DHT22;19640;50.944;5.260;2022-09-16T06:13:35;14.10;99.90
33269;DHT22;19640;50.944;5.260;2022-09-16T06:16:02;14.00;99.90
33269;DHT22;19640;50.944;5.260;2022-09-16T06:18:28;14.20;99.90
33269;DHT22;19640;50.944;5.260;2022-09-16T06:20:54;14.20;99.90
33269;DHT22;19640;50.944;5.260;2022-09-16T06:23:19;14.10;99.90
33269;DHT22;19640;50.944;5.260;2022-09-16T06:25:45;14.10;99.90
33269;DHT22;19640;50.944;5.260;2022-09-16T06:28:11;14.20;99.90
33269;DHT22;19640;50.944;5.260;2022-09-16T06:30:37;14.50;99.90
33269;DHT22;19640;50.944;5.260;2022-09-16T06:33:02;14.50;99.90
33269;DHT22;19640;50.944;5.260;2022-09-16T06:35:28;14.60;99.90
33269;DHT22;19640;50.944;5.260;2022-09-16T06:37:53;14.60;99.90
33269;DHT22;19640;50.944;5.260;2022-09-16T06:40:19;14.60;99.90
33269;DHT22;19640;50.944;5.260;2022-09-16T06:42:45;14.40;99.90
33269;DHT22;19640;50.944;5.260;2022-09-16T06:45:10;14.30;99.90
33269;DHT22;19640;50.944;5.260;2022-09-16T06:47:36;14.40;99.90
33269;DHT22;19640;50.944;5.260;2022-09-16T06:50:02;14.40;99.90
33269;DHT22;19640;50.944;5.260;2022-09-16T06:52:29;14.40;99.90
33269;DHT22;19640;50.944;5.260;2022-09-16T06:54:55;14.30;99.90
33269;DHT22;19640;50.944;5.260;2022-09-16T06:57:21;14.20;99.90
33269;DHT22;19640;50.944;5.260;2022-09-16T06:59:50;14.20;99.90
33269;DHT22;19640;50.944;5.260;2022-09-16T07:02:17;14.30;99.90
33269;DHT22;19640;50.944;5.260;2022-09-16T07:04:44;14.30;99.90
33269;DHT22;19640;50.944;5.260;2022-09-16T07:07:09;14.50;99.90
33269;DHT22;19640;50.944;5.260;2022-09-16T07:09:35;14.50;99.90
33269;DHT22;19640;50.944;5.260;2022-09-16T07:12:00;14.40;99.90
33269;DHT22;19640;50.944;5.260;2022-09-16T07:14:27;14.60;99.90
33269;DHT22;19640;50.944;5.260;2022-09-16T07:16:52;14.70;99.90
33269;DHT22;19640;50.944;5.260;2022-09-16T07:19:18;14.80;99.90
33269;DHT22;19640;50.944;5.260;2022-09-16T07:21:44;14.60;99.90
33269;DHT22;19640;50.944;5.260;2022-09-16T07:24:12;14.50;99.90
33269;DHT22;19640;50.944;5.260;2022-09-16T07:26:38;14.50;99.90
33269;DHT22;19640;50.944;5.260;2022-09-16T07:29:05;14.60;99.90
33269;DHT22;19640;50.944;5.260;2022-09-16T07:31:35;14.60;99.90
33269;DHT22;19640;50.944;5.260;2022-09-16T07:34:02;14.60;99.90
33269;DHT22;19640;50.944;5.260;2022-09-16T07:36:28;14.40;99.90
33269;DHT22;19640;50.944;5.260;2022-09-16T07:38:55;14.40;99.90
33269;DHT22;19640;50.944;5.260;2022-09-16T07:41:27;14.60;99.90
33269;DHT22;19640;50.944;5.260;2022-09-16T07:43:54;14.50;99.90
33269;DHT22;19640;50.944;5.260;2022-09-16T07:46:20;14.60;99.90
33269;DHT22;19640;50.944;5.260;2022-09-16T07:48:46;14.60;99.90
33269;DHT22;19640;50.944;5.260;2022-09-16T07:51:13;14.60;99.90
33269;DHT22;19640;50.944;5.260;2022-09-16T07:53:39;14.60;99.90
33269;DHT22;19640;50.944;5.260;2022-09-16T07:56:06;14.60;99.90
33269;DHT22;19640;50.944;5.260;2022-09-16T07:58:32;14.70;99.90
33269;DHT22;19640;50.944;5.260;2022-09-16T08:00:58;14.70;99.90
33269;DHT22;19640;50.944;5.260;2022-09-16T08:03:23;14.80;99.90
33269;DHT22;19640;50.944;5.260;2022-09-16T08:05:49;14.80;99.90
33269;DHT22;19640;50.944;5.260;2022-09-16T08:08:14;14.90;99.90
33269;DHT22;19640;50.944;5.260;2022-09-16T08:10:40;14.70;99.90
33269;DHT22;19640;50.944;5.260;2022-09-16T08:13:06;14.50;99.90
33269;DHT22;19640;50.944;5.260;2022-09-16T08:15:32;14.50;99.90
33269;DHT22;19640;50.944;5.260;2022-09-16T08:17:57;14.40;99.90
33269;DHT22;19640;50.944;5.260;2022-09-16T08:20:23;14.50;99.90
33269;DHT22;19640;50.944;5.260;2022-09-16T08:22:50;14.50;99.90
33269;DHT22;19640;50.944;5.260;2022-09-16T08:25:16;14.50;99.90
33269;DHT22;19640;50.944;5.260;2022-09-16T08:27:41;14.30;99.90
33269;DHT22;19640;50.944;5.260;2022-09-16T08:30:07;14.40;99.90
33269;DHT22;19640;50.944;5.260;2022-09-16T08:32:33;14.50;99.90
33269;DHT22;19640;50.944;5.260;2022-09-16T08:34:58;14.60;99.90
33269;DHT22;19640;50.944;5.260;2022-09-16T08:37:23;14.70;99.90
33269;DHT22;19640;50.944;5.260;2022-09-16T08:39:49;14.60;99.90
33269;DHT22;19640;50.944;5.260;2022-09-16T08:45:02;14.50;99.90
33269;DHT22;19640;50.944;5.260;2022-09-16T08:47:37;14.50;99.90
33269;DHT22;19640;50.944;5.260;2022-09-16T08:50:09;14.60;99.90
33269;DHT22;19640;50.944;5.260;2022-09-16T08:52:37;14.60;99.90
33269;DHT22;19640;50.944;5.260;2022-09-16T08:55:09;14.60;99.90
33269;DHT22;19640;50.944;5.260;2022-09-16T08:57:40;14.70;99.90
33269;DHT22;19640;50.944;5.260;2022-09-16T09:00:11;14.80;99.90
33269;DHT22;19640;50.944;5.260;2022-09-16T09:02:41;14.80;99.90
33269;DHT22;19640;50.944;5.260;2022-09-16T09:05:21;14.90;99.90
33269;DHT22;19640;50.944;5.260;2022-09-16T09:12:52;14.90;99.90
33269;DHT22;19640;50.944;5.260;2022-09-16T09:23:10;15.70;99.90
33269;DHT22;19640;50.944;5.260;2022-09-16T09:30:35;15.30;99.90
33269;DHT22;19640;50.944;5.260;2022-09-16T09:40:58;15.50;99.90
33269;DHT22;19640;50.944;5.260;2022-09-16T09:43:28;15.60;99.90
33269;DHT22;19640;50.944;5.260;2022-09-16T09:48:26;15.60;99.90
33269;DHT22;19640;50.944;5.260;2022-09-16T09:50:54;15.80;99.90
33269;DHT22;19640;50.944;5.260;2022-09-16T09:53:24;15.80;99.90
33269;DHT22;19640;50.944;5.260;2022-09-16T10:01:29;16.10;99.90
33269;DHT22;19640;50.944;5.260;2022-09-16T10:03:54;16.50;99.90
33269;DHT22;19640;50.944;5.260;2022-09-16T10:06:24;16.40;99.90
33269;DHT22;19640;50.944;5.260;2022-09-16T10:08:51;16.20;99.90
33269;DHT22;19640;50.944;5.260;2022-09-16T10:11:22;16.10;99.90
33269;DHT22;19640;50.944;5.260;2022-09-16T10:13:50;15.40;99.90
33269;DHT22;19640;50.944;5.260;2022-09-16T10:16:26;15.00;99.90
33269;DHT22;19640;50.944;5.260;2022-09-16T10:19:39;14.60;99.90
33269;DHT22;19640;50.944;5.260;2022-09-16T10:21:42;14.50;99.90
33269;DHT22;19640;50.944;5.260;2022-09-16T10:26:49;14.40;99.90
33269;DHT22;19640;50.944;5.260;2022-09-16T10:29:15;14.50;99.90
33269;DHT22;19640;50.944;5.260;2022-09-16T10:31:42;14.50;99.90
33269;DHT22;19640;50.944;5.260;2022-09-16T10:36:42;14.60;99.90
33269;DHT22;19640;50.944;5.260;2022-09-16T10:39:16;14.60;99.90
33269;DHT22;19640;50.944;5.260;2022-09-16T10:41:45;14.60;99.90
33269;DHT22;19640;50.944;5.260;2022-09-16T10:44:15;14.40;99.90
33269;DHT22;19640;50.944;5.260;2022-09-16T10:46:51;14.50;99.90
33269;DHT22;19640;50.944;5.260;2022-09-16T10:49:19;14.60;99.90
33269;DHT22;19640;50.944;5.260;2022-09-16T10:51:45;14.90;99.90
33269;DHT22;19640;50.944;5.260;2022-09-16T10:54:21;15.20;99.90
33269;DHT22;19640;50.944;5.260;2022-09-16T10:56:48;15.40;99.90
33269;DHT22;19640;50.944;5.260;2022-09-16T10:59:14;15.30;99.90
33269;DHT22;19640;50.944;5.260;2022-09-16T11:01:54;15.30;99.90
33269;DHT22;19640;50.944;5.260;2022-09-16T11:09:41;15.60;99.90
33269;DHT22;19640;50.944;5.260;2022-09-16T11:22:52;15.10;99.90
33269;DHT22;19640;50.944;5.260;2022-09-16T11:25:26;15.20;99.90
33269;DHT22;19640;50.944;5.260;2022-09-16T11:30:29;15.60;99.90
33269;DHT22;19640;50.944;5.260;2022-09-16T11:33:08;15.60;99.90
33269;DHT22;19640;50.944;5.260;2022-09-16T11:38:17;15.70;99.90
33269;DHT22;19640;50.944;5.260;2022-09-16T11:41:08;15.70;99.90
33269;DHT22;19640;50.944;5.260;2022-09-16T11:43:40;15.90;99.90
33269;DHT22;19640;50.944;5.260;2022-09-16T11:54:11;16.20;99.90
33269;DHT22;19640;50.944;5.260;2022-09-16T11:59:40;15.70;99.90
33269;DHT22;19640;50.944;5.260;2022-09-16T12:02:13;15.60;99.90
33269;DHT22;19640;50.944;5.260;2022-09-16T12:04:45;15.60;99.90
33269;DHT22;19640;50.944;5.260;2022-09-16T12:07:21;15.20;99.90
33269;DHT22;19640;50.944;5.260;2022-09-16T12:12:37;14.30;99.90
33269;DHT22;19640;50.944;5.260;2022-09-16T12:18:16;13.90;99.90
33269;DHT22;19640;50.944;5.260;2022-09-16T12:20:46;13.60;99.90
33269;DHT22;19640;50.944;5.260;2022-09-16T12:23:16;13.70;99.90
33269;DHT22;19640;50.944;5.260;2022-09-16T12:25:58;13.70;99.90
33269;DHT22;19640;50.944;5.260;2022-09-16T12:28:28;13.60;99.90
33269;DHT22;19640;50.944;5.260;2022-09-16T12:33:40;13.40;99.90
33269;DHT22;19640;50.944;5.260;2022-09-16T12:36:07;13.60;99.90
33269;DHT22;19640;50.944;5.260;2022-09-16T12:38:35;13.90;99.90
33269;DHT22;19640;50.944;5.260;2022-09-16T12:48:40;14.50;99.90
33269;DHT22;19640;50.944;5.260;2022-09-16T12:56:47;15.00;99.90
33269;DHT22;19640;50.944;5.260;2022-09-16T13:01:51;15.00;99.90
33269;DHT22;19640;50.944;5.260;2022-09-16T13:04:18;15.10;99.90
33269;DHT22;19640;50.944;5.260;2022-09-16T13:06:49;15.10;99.90
33269;DHT22;19640;50.944;5.260;2022-09-16T13:09:23;15.00;99.90
33269;DHT22;19640;50.944;5.260;2022-09-16T13:14:26;15.40;99.90
33269;DHT22;19640;50.944;5.260;2022-09-16T13:16:54;15.60;99.90
33269;DHT22;19640;50.944;5.260;2022-09-16T13:21:45;15.70;99.90
33269;DHT22;19640;50.944;5.260;2022-09-16T13:26:44;15.90;99.90
33269;DHT22;19640;50.944;5.260;2022-09-16T13:31:54;16.20;99.90
33269;DHT22;19640;50.944;5.260;2022-09-16T13:34:19;16.20;99.90
33269;DHT22;19640;50.944;5.260;2022-09-16T13:36:46;16.20;99.90
33269;DHT22;19640;50.944;5.260;2022-09-16T13:39:14;16.30;99.90
33269;DHT22;19640;50.944;5.260;2022-09-16T13:41:41;16.20;99.90
33269;DHT22;19640;50.944;5.260;2022-09-16T13:46:51;16.00;99.90
33269;DHT22;19640;50.944;5.260;2022-09-16T13:51:43;15.50;99.90
33269;DHT22;19640;50.944;5.260;2022-09-16T13:56:50;15.50;99.90
33269;DHT22;19640;50.944;5.260;2022-09-16T13:59:23;15.40;99.90
33269;DHT22;19640;50.944;5.260;2022-09-16T14:09:29;15.20;99.90
33269;DHT22;19640;50.944;5.260;2022-09-16T14:14:30;15.30;99.90
33269;DHT22;19640;50.944;5.260;2022-09-16T14:16:56;15.20;99.90
33269;DHT22;19640;50.944;5.260;2022-09-16T14:19:25;15.10;99.90
33269;DHT22;19640;50.944;5.260;2022-09-16T14:22:02;15.00;99.90
33269;DHT22;19640;50.944;5.260;2022-09-16T14:24:38;15.00;99.90
33269;DHT22;19640;50.944;5.260;2022-09-16T14:27:04;15.20;99.90
33269;DHT22;19640;50.944;5.260;2022-09-16T14:29:30;15.30;99.90
33269;DHT22;19640;50.944;5.260;2022-09-16T14:31:56;15.50;99.90
33269;DHT22;19640;50.944;5.260;2022-09-16T14:34:32;15.60;99.90
33269;DHT22;19640;50.944;5.260;2022-09-16T14:36:58;15.80;99.90
33269;DHT22;19640;50.944;5.260;2022-09-16T14:39:25;16.00;99.90
33269;DHT22;19640;50.944;5.260;2022-09-16T14:41:53;16.20;99.90
33269;DHT22;19640;50.944;5.260;2022-09-16T14:44:26;16.20;99.90
33269;DHT22;19640;50.944;5.260;2022-09-16T14:49:41;16.50;99.90
33269;DHT22;19640;50.944;5.260;2022-09-16T14:52:30;16.40;99.90
33269;DHT22;19640;50.944;5.260;2022-09-16T14:54:57;16.10;99.90
33269;DHT22;19640;50.944;5.260;2022-09-16T14:57:23;16.00;99.90
33269;DHT22;19640;50.944;5.260;2022-09-16T14:59:50;16.00;99.90
33269;DHT22;19640;50.944;5.260;2022-09-16T15:02:21;15.80;99.90
33269;DHT22;19640;50.944;5.260;2022-09-16T15:04:59;15.60;99.90
33269;DHT22;19640;50.944;5.260;2022-09-16T15:07:28;15.50;99.90
33269;DHT22;19640;50.944;5.260;2022-09-16T15:09:59;15.50;99.90
33269;DHT22;19640;50.944;5.260;2022-09-16T15:12:30;15.40;99.90
33269;DHT22;19640;50.944;5.260;2022-09-16T15:15:01;15.50;99.90
33269;DHT22;19640;50.944;5.260;2022-09-16T15:17:27;15.10;99.90
33269;DHT22;19640;50.944;5.260;2022-09-16T15:19:54;14.80;99.90
33269;DHT22;19640;50.944;5.260;2022-09-16T15:22:21;14.60;99.90
33269;DHT22;19640;50.944;5.260;2022-09-16T15:24:56;14.70;99.90
33269;DHT22;19640;50.944;5.260;2022-09-16T15:27:24;14.90;99.90
33269;DHT22;19640;50.944;5.260;2022-09-16T15:29:52;15.00;99.90
33269;DHT22;19640;50.944;5.260;2022-09-16T15:32:20;14.90;99.90
33269;DHT22;19640;50.944;5.260;2022-09-16T15:35:00;14.40;99.90
33269;DHT22;19640;50.944;5.260;2022-09-16T15:37:30;14.20;99.90
33269;DHT22;19640;50.944;5.260;2022-09-16T15:40:06;14.20;99.90
33269;DHT22;19640;50.944;5.260;2022-09-16T15:42:32;13.90;99.90
33269;DHT22;19640;50.944;5.260;2022-09-16T15:44:58;14.00;99.90
33269;DHT22;19640;50.944;5.260;2022-09-16T15:49:54;14.40;99.90
33269;DHT22;19640;50.944;5.260;2022-09-16T15:52:23;14.20;99.90
33269;DHT22;19640;50.944;5.260;2022-09-16T15:54:53;14.10;99.90
33269;DHT22;19640;50.944;5.260;2022-09-16T16:00:03;14.00;99.90
33269;DHT22;19640;50.944;5.260;2022-09-16T16:02:48;14.00;99.90
33269;DHT22;19640;50.944;5.260;2022-09-16T16:05:26;14.10;99.90
33269;DHT22;19640;50.944;5.260;2022-09-16T16:07:57;14.30;99.90
33269;DHT22;19640;50.944;5.260;2022-09-16T16:12:50;14.50;99.90
33269;DHT22;19640;50.944;5.260;2022-09-16T16:15:16;14.00;99.90
33269;DHT22;19640;50.944;5.260;2022-09-16T16:17:43;14.00;99.90
33269;DHT22;19640;50.944;5.260;2022-09-16T16:20:10;13.90;99.90
33269;DHT22;19640;50.944;5.260;2022-09-16T16:22:37;13.70;99.90
33269;DHT22;19640;50.944;5.260;2022-09-16T16:25:03;13.70;99.90
33269;DHT22;19640;50.944;5.260;2022-09-16T16:27:29;13.60;99.90
33269;DHT22;19640;50.944;5.260;2022-09-16T16:29:54;13.50;99.90
33269;DHT22;19640;50.944;5.260;2022-09-16T16:32:20;13.30;99.90
33269;DHT22;19640;50.944;5.260;2022-09-16T16:34:47;13.30;99.90
33269;DHT22;19640;50.944;5.260;2022-09-16T16:37:14;13.10;99.90
33269;DHT22;19640;50.944;5.260;2022-09-16T16:39:41;13.10;99.90
33269;DHT22;19640;50.944;5.260;2022-09-16T16:42:08;13.00;99.90
33269;DHT22;19640;50.944;5.260;2022-09-16T16:44:34;13.00;99.90
33269;DHT22;19640;50.944;5.260;2022-09-16T16:46:59;12.90;99.90
33269;DHT22;19640;50.944;5.260;2022-09-16T16:49:25;12.90;99.90
33269;DHT22;19640;50.944;5.260;2022-09-16T16:51:51;12.90;99.90
33269;DHT22;19640;50.944;5.260;2022-09-16T16:54:19;12.80;99.90
33269;DHT22;19640;50.944;5.260;2022-09-16T16:56:44;12.80;99.90
33269;DHT22;19640;50.944;5.260;2022-09-16T16:59:11;12.80;99.90
33269;DHT22;19640;50.944;5.260;2022-09-16T17:01:36;12.90;99.90
33269;DHT22;19640;50.944;5.260;2022-09-16T17:04:02;13.00;99.90
33269;DHT22;19640;50.944;5.260;2022-09-16T17:06:28;13.00;99.90
33269;DHT22;19640;50.944;5.260;2022-09-16T17:08:54;12.90;99.90
33269;DHT22;19640;50.944;5.260;2022-09-16T17:11:20;13.00;99.90
33269;DHT22;19640;50.944;5.260;2022-09-16T17:13:47;13.10;99.90
33269;DHT22;19640;50.944;5.260;2022-09-16T17:16:14;13.10;99.90
33269;DHT22;19640;50.944;5.260;2022-09-16T17:18:40;13.00;99.90
33269;DHT22;19640;50.944;5.260;2022-09-16T17:21:07;12.90;99.90
33269;DHT22;19640;50.944;5.260;2022-09-16T17:23:33;12.70;99.90
33269;DHT22;19640;50.944;5.260;2022-09-16T17:25:59;12.70;99.90
33269;DHT22;19640;50.944;5.260;2022-09-16T17:28:24;12.70;99.90
33269;DHT22;19640;50.944;5.260;2022-09-16T17:30:50;12.70;99.90
33269;DHT22;19640;50.944;5.260;2022-09-16T17:33:16;12.70;99.90
33269;DHT22;19640;50.944;5.260;2022-09-16T17:35:41;12.70;99.90
33269;DHT22;19640;50.944;5.260;2022-09-16T17:38:07;12.70;99.90
33269;DHT22;19640;50.944;5.260;2022-09-16T17:40:34;12.80;99.90
33269;DHT22;19640;50.944;5.260;2022-09-16T17:42:59;12.90;99.90
33269;DHT22;19640;50.944;5.260;2022-09-16T17:45:25;12.70;99.90
33269;DHT22;19640;50.944;5.260;2022-09-16T17:47:50;12.80;99.90
33269;DHT22;19640;50.944;5.260;2022-09-16T17:50:15;12.70;99.90
33269;DHT22;19640;50.944;5.260;2022-09-16T17:52:42;12.80;99.90
33269;DHT22;19640;50.944;5.260;2022-09-16T17:55:09;12.80;99.90
33269;DHT22;19640;50.944;5.260;2022-09-16T17:57:34;12.90;99.90
33269;DHT22;19640;50.944;5.260;2022-09-16T18:00:00;12.90;99.90
33269;DHT22;19640;50.944;5.260;2022-09-16T18:02:26;12.70;99.90
33269;DHT22;19640;50.944;5.260;2022-09-16T18:04:51;12.60;99.90
33269;DHT22;19640;50.944;5.260;2022-09-16T18:07:17;12.80;99.90
33269;DHT22;19640;50.944;5.260;2022-09-16T18:09:42;12.70;99.90
33269;DHT22;19640;50.944;5.260;2022-09-16T18:12:08;12.50;99.90
33269;DHT22;19640;50.944;5.260;2022-09-16T18:14:34;12.60;99.90
33269;DHT22;19640;50.944;5.260;2022-09-16T18:17:00;12.60;99.90
33269;DHT22;19640;50.944;5.260;2022-09-16T18:19:25;12.60;99.90
33269;DHT22;19640;50.944;5.260;2022-09-16T18:21:51;12.50;99.90
33269;DHT22;19640;50.944;5.260;2022-09-16T18:24:17;12.70;99.90
33269;DHT22;19640;50.944;5.260;2022-09-16T18:26:42;12.60;99.90
33269;DHT22;19640;50.944;5.260;2022-09-16T18:29:09;12.60;99.90
33269;DHT22;19640;50.944;5.260;2022-09-16T18:31:34;12.70;99.90
33269;DHT22;19640;50.944;5.260;2022-09-16T18:34:00;12.50;99.90
33269;DHT22;19640;50.944;5.260;2022-09-16T18:36:26;12.50;99.90
33269;DHT22;19640;50.944;5.260;2022-09-16T18:38:54;12.50;99.90
33269;DHT22;19640;50.944;5.260;2022-09-16T18:41:22;12.40;99.90
33269;DHT22;19640;50.944;5.260;2022-09-16T18:43:51;12.50;99.90
33269;DHT22;19640;50.944;5.260;2022-09-16T18:46:21;12.50;99.90